ASB weather

Ashgabat International Airport
Ashgabat, Ahal, Turkmenistan

Public forecast

Using degrees Celsius for public forecast. Weather courtesy of forecast.io.

Current aviation weather report (METAR) for Ashgabat International Airport

Retrieved 2020/01/28 12:00 UTC (47 minutes ago):

UTAA 281200Z 10014KT 9999 NSC 12/M01 Q1023 R88/70D NOSIG

Aviation forecast (TAF) for Ashgabat International Airport

Retrieved 2020/01/28 12:00 UTC (47 minutes ago):

TAF UTAA 281030Z 2812/2912 12014KT 6000 SCT040 TEMPO 2820/2903 18012KT 2000 BR SCT007 TEMPO 2906/2912 10014G24KT